Time;durP1;ratioP1;P1;durP2;ratioP2;P2;SDS_P1;SDS_P2;PMS_P1;PMS_P2;Temp;Humidity;BMP_temperature;BMP_pressure;BME280_temperature;BME280_humidity;BME280_pressure;Samples;Min_cycle;Max_cycle;Signal;HPM_P1;HPM_P2
2021/06/10 00:04:34;;;;;;;6.10;5.58;;;;;;;11.82;67.58;100111.41;262701;1107;101048;-72
2021/06/10 00:09:39;;;;;;;5.65;4.98;;;;;;;11.69;67.04;100116.94;261887;1103;102876;-71
2021/06/10 00:14:45;;;;;;;8.45;4.15;;;;;;;11.51;67.56;100115.20;261905;1107;102726;-71
2021/06/10 00:19:50;;;;;;;;;;;;;;;11.42;67.98;100125.41;261596;1107;102939;-71
2021/06/10 00:24:56;;;;;;;4.78;4.28;;;;;;;11.37;68.42;100119.13;260947;1106;103037;-71
2021/06/10 00:30:02;;;;;;;6.50;5.85;;;;;;;11.41;68.78;100114.95;261478;1107;103069;-69
2021/06/10 00:35:08;;;;;;;9.35;5.33;;;;;;;11.39;67.98;100114.38;259964;1107;102988;-70
2021/06/10 00:40:14;;;;;;;5.75;5.25;;;;;;;11.30;68.67;100107.77;259991;1101;103946;-70
2021/06/10 00:45:21;;;;;;;6.77;4.73;;;;;;;11.16;68.66;100109.02;260697;1107;103058;-72
2021/06/10 00:50:40;;;;;;;6.18;5.13;;;;;;;11.07;69.29;100105.85;260544;1107;102977;-71
2021/06/10 00:55:46;;;;;;;7.60;6.73;;;;;;;11.03;68.68;100110.83;260945;1107;102991;-71
2021/06/10 01:00:53;;;;;;;7.24;5.80;;;;;;;10.99;69.01;100112.36;260352;1107;103025;-71
2021/06/10 01:06:06;;;;;;;7.43;5.85;;;;;;;10.91;69.25;100107.34;260028;1107;103119;-72
2021/06/10 01:11:23;;;;;;;10.30;5.65;;;;;;;10.82;68.95;100110.55;261085;1107;102969;-70
2021/06/10 01:16:30;;;;;;;;;;;;;;;10.74;69.31;100109.00;260441;1107;103075;-70
2021/06/10 01:21:38;;;;;;;5.58;4.93;;;;;;;10.65;69.89;100105.86;261243;1107;103088;-70
2021/06/10 01:27:07;;;;;;;7.63;6.13;;;;;;;10.61;69.75;100107.34;260751;1107;103057;-70
2021/06/10 01:32:12;;;;;;;7.35;5.93;;;;;;;10.63;69.77;100107.13;261762;1107;102940;-70
2021/06/10 01:37:18;;;;;;;6.45;4.48;;;;;;;10.53;70.05;100112.17;261903;1103;102205;-70
2021/06/10 01:42:25;;;;;;;7.70;4.10;;;;;;;10.42;69.70;100106.55;261726;1107;103070;-70
2021/06/10 01:47:30;;;;;;;5.48;4.53;;;;;;;10.37;70.26;100103.77;261730;1107;102947;-71
2021/06/10 01:52:39;;;;;;;12.63;6.58;;;;;;;10.37;69.95;100103.77;262609;1107;102915;-70
2021/06/10 01:57:46;;;;;;;5.95;5.38;;;;;;;10.35;70.04;100105.03;262362;1107;102773;-71
2021/06/10 02:02:54;;;;;;;6.38;5.40;;;;;;;10.27;69.99;100103.48;262617;1107;102067;-73
2021/06/10 02:08:00;;;;;;;7.73;4.48;;;;;;;10.19;70.43;100101.11;261690;1107;103153;-73
2021/06/10 02:13:07;;;;;;;8.43;5.75;;;;;;;10.08;70.32;100099.98;262461;1107;102796;-73
2021/06/10 02:18:14;;;;;;;7.58;6.78;;;;;;;10.09;70.63;100106.10;261678;1107;103080;-72
2021/06/10 02:23:19;;;;;;;12.15;9.33;;;;;;;10.08;70.79;100101.84;261767;1107;101505;-69
2021/06/10 02:28:32;;;;;;;15.15;11.75;;;;;;;10.11;71.67;100104.03;261382;1107;102943;-69
2021/06/10 02:33:43;;;;;;;10.95;7.73;;;;;;;10.17;71.66;100113.80;261572;1107;103116;-68
2021/06/10 02:38:59;;;;;;;8.80;6.08;;;;;;;10.10;71.49;100119.20;261230;1107;103056;-68
2021/06/10 02:44:09;;;;;;;;;;;;;;;9.99;71.00;100113.81;260267;1107;103030;-68
2021/06/10 02:49:18;;;;;;;16.55;6.65;;;;;;;9.93;70.76;100115.51;260079;1103;103111;-68
2021/06/10 02:54:25;;;;;;;6.80;5.65;;;;;;;9.87;70.98;100112.91;260405;1107;103063;-68
2021/06/10 02:59:31;;;;;;;6.60;4.83;;;;;;;9.78;71.89;100110.52;260416;1107;102969;-68
2021/06/10 03:04:37;;;;;;;8.13;6.98;;;;;;;9.84;71.49;100105.36;260651;1101;102964;-71
2021/06/10 03:09:45;;;;;;;8.64;7.24;;;;;;;10.01;72.39;100114.41;261228;1106;102952;-70
2021/06/10 03:14:52;;;;;;;8.90;7.60;;;;;;;10.17;72.01;100116.47;261152;1107;102971;-70
2021/06/10 03:20:01;;;;;;;11.88;7.00;;;;;;;10.24;71.70;100119.91;260772;1107;102960;-70
2021/06/10 03:25:09;;;;;;;8.25;5.95;;;;;;;10.25;72.49;100118.05;260663;1107;103036;-70
2021/06/10 03:30:16;;;;;;;7.10;5.00;;;;;;;10.32;72.18;100126.80;260132;1107;103336;-70
2021/06/10 03:35:22;;;;;;;;;;;;;;;10.38;72.23;100132.05;260861;1107;103302;-70
2021/06/10 03:40:27;;;;;;;10.10;8.23;;;;;;;10.63;72.20;100131.93;260168;1107;103026;-70
2021/06/10 03:45:33;;;;;;;9.00;7.90;;;;;;;11.02;72.87;100140.40;261007;1107;103400;-70
2021/06/10 03:50:38;;;;;;;6.13;5.53;;;;;;;11.27;72.30;100134.91;260520;1107;102958;-71
2021/06/10 03:55:44;;;;;;;6.00;5.13;;;;;;;11.51;71.99;100136.56;262184;1107;102993;-69
2021/06/10 04:00:50;;;;;;;10.40;7.68;;;;;;;11.66;72.11;100147.59;261045;1107;103051;-69
2021/06/10 04:05:56;;;;;;;10.43;7.28;;;;;;;11.82;71.92;100139.97;262636;1107;101356;-69
2021/06/10 04:11:00;;;;;;;8.18;6.33;;;;;;;11.97;71.99;100146.45;261840;1107;102965;-69
2021/06/10 04:16:05;;;;;;;7.95;5.85;;;;;;;12.22;71.87;100148.08;262121;1107;101404;-68
2021/06/10 04:21:10;;;;;;;10.48;6.33;;;;;;;12.63;71.28;100149.69;261425;1107;102961;-71
2021/06/10 04:26:17;;;;;;;7.68;6.53;;;;;;;13.38;71.16;100152.16;260868;1107;103071;-71
2021/06/10 04:31:22;;;;;;;8.03;6.95;;;;;;;15.28;69.34;100147.08;261403;1107;102926;-69
2021/06/10 04:36:26;;;;;;;6.48;5.83;;;;;;;18.57;64.74;100141.62;260063;1107;103034;-69
2021/06/10 04:41:30;;;;;;;8.85;6.65;;;;;;;22.08;60.82;100144.56;261165;1107;103107;-69
2021/06/10 04:46:36;;;;;;;7.58;6.88;;;;;;;22.89;59.39;100142.09;260458;1107;103057;-69
2021/06/10 04:51:42;;;;;;;7.43;6.73;;;;;;;22.49;58.24;100141.03;260037;1107;102972;-69
2021/06/10 04:56:48;;;;;;;8.38;7.35;;;;;;;21.54;57.79;100131.69;260384;1103;103062;-69
2021/06/10 05:01:53;;;;;;;9.38;8.50;;;;;;;22.53;56.21;100138.52;260106;1107;103072;-70
2021/06/10 05:06:58;;;;;;;8.25;7.43;;;;;;;25.49;52.59;100136.49;260237;1107;103084;-70
2021/06/10 05:12:04;;;;;;;7.53;5.90;;;;;;;27.99;49.12;100132.07;260226;1107;102968;-69
2021/06/10 05:17:10;;;;;;;6.60;5.98;;;;;;;31.24;45.89;100136.81;260461;1107;103065;-72
2021/06/10 05:22:16;;;;;;;6.58;5.78;;;;;;;33.79;41.88;100134.30;260427;1102;103049;-67
2021/06/10 05:27:20;;;;;;;6.08;3.75;;;;;;;35.66;38.34;100142.05;260100;1107;103154;-69
2021/06/10 05:32:27;;;;;;;3.75;3.45;;;;;;;37.29;36.24;100148.55;261109;1107;103072;-67
2021/06/10 05:37:31;;;;;;;2.68;2.58;;;;;;;38.53;33.03;100133.63;261256;1107;102960;-71
2021/06/10 05:42:36;;;;;;;7.20;3.13;;;;;;;39.59;31.32;100133.50;261322;1107;102958;-72
2021/06/10 05:47:42;;;;;;;5.83;2.75;;;;;;;39.69;28.60;100126.97;261781;1107;102030;-69
2021/06/10 05:52:47;;;;;;;2.80;2.60;;;;;;;40.26;27.89;100126.80;260424;1107;103150;-70
2021/06/10 05:57:52;;;;;;;3.40;2.65;;;;;;;40.96;25.98;100128.66;260784;1107;103066;-69
2021/06/10 06:03:02;;;;;;;11.98;4.03;;;;;;;41.44;25.52;100141.19;262662;1108;101389;-71
2021/06/10 06:08:07;;;;;;;6.85;3.38;;;;;;;41.93;24.57;100134.39;262675;1107;102944;-71
2021/06/10 06:13:12;;;;;;;3.08;2.70;;;;;;;42.08;23.87;100129.25;262609;1107;101106;-71
2021/06/10 06:18:17;;;;;;;2.58;1.85;;;;;;;42.34;22.82;100136.54;262602;1107;103043;-70
2021/06/10 06:23:22;;;;;;;5.08;2.68;;;;;;;42.17;21.81;100131.44;261932;1107;102958;-69
2021/06/10 06:28:27;;;;;;;4.13;2.05;;;;;;;42.15;21.74;100133.88;261528;1107;103018;-69
2021/06/10 06:33:34;;;;;;;4.30;2.45;;;;;;;42.07;21.59;100133.28;261499;1107;103334;-70
2021/06/10 06:38:45;;;;;;;2.30;1.60;;;;;;;41.87;21.18;100129.78;261494;1107;103374;-72
2021/06/10 06:43:51;;;;;;;2.10;1.98;;;;;;;41.70;22.01;100138.17;261081;1107;103070;-74
2021/06/10 06:48:58;;;;;;;10.50;3.03;;;;;;;41.39;21.61;100128.50;261089;1107;103030;-73
2021/06/10 06:54:03;;;;;;;1.85;1.75;;;;;;;40.83;21.23;100119.34;260129;1103;103011;-72
2021/06/10 06:59:09;;;;;;;2.50;2.40;;;;;;;40.17;21.43;100123.77;260762;1107;104053;-70
2021/06/10 07:04:14;;;;;;;2.40;1.88;;;;;;;39.62;21.91;100125.08;260160;1107;102979;-71
2021/06/10 07:09:19;;;;;;;2.18;2.05;;;;;;;39.64;22.51;100131.03;260098;1107;103112;-71
2021/06/10 07:14:25;;;;;;;4.73;2.10;;;;;;;39.33;22.14;100126.70;260134;1107;103126;-72
2021/06/10 07:19:30;;;;;;;1.90;1.80;;;;;;;38.84;22.71;100134.48;260786;1103;103349;-72
2021/06/10 07:24:36;;;;;;;5.45;3.00;;;;;;;37.50;23.21;100140.06;260007;1106;103088;-72
2021/06/10 07:29:41;;;;;;;2.33;2.10;;;;;;;35.41;23.99;100143.98;260409;1107;103038;-70
2021/06/10 07:34:46;;;;;;;5.63;2.47;;;;;;;34.42;25.95;100147.06;259987;1107;102965;-73
2021/06/10 07:39:51;;;;;;;2.90;2.23;;;;;;;33.64;26.78;100149.91;260500;1107;103391;-70
2021/06/10 07:44:57;;;;;;;2.10;2.00;;;;;;;32.88;27.33;100149.44;260811;1107;103136;-72
2021/06/10 07:50:04;;;;;;;4.20;1.68;;;;;;;32.23;27.91;100140.58;261276;1107;102990;-73
2021/06/10 07:55:10;;;;;;;4.73;2.15;;;;;;;31.81;28.33;100130.41;261981;1107;102989;-73
2021/06/10 08:00:16;;;;;;;3.93;2.40;;;;;;;31.54;28.85;100137.78;262443;1106;101515;-72
2021/06/10 08:05:20;;;;;;;3.65;1.98;;;;;;;31.21;28.72;100134.78;260556;1107;102998;-71
2021/06/10 08:10:26;;;;;;;4.48;2.65;;;;;;;30.89;28.49;100143.16;260037;1107;103062;-73
2021/06/10 08:15:31;;;;;;;2.43;2.30;;;;;;;30.31;29.60;100133.98;261024;1107;102971;-73
2021/06/10 08:20:36;;;;;;;3.10;2.90;;;;;;;30.33;31.13;100142.67;262094;1102;103117;-76
2021/06/10 08:25:43;;;;;;;4.88;2.68;;;;;;;30.17;31.43;100139.16;261944;1107;102971;-72
2021/06/10 08:30:48;;;;;;;3.57;3.23;;;;;;;30.05;30.90;100137.29;261439;1107;103037;-71
2021/06/10 08:35:56;;;;;;;4.50;2.83;;;;;;;29.70;30.96;100142.66;261211;1107;102994;-71
2021/06/10 08:41:06;;;;;;;3.73;2.68;;;;;;;29.02;30.99;100150.98;260615;1107;102976;-71
2021/06/10 08:46:13;;;;;;;3.00;2.80;;;;;;;28.58;31.92;100141.78;261198;1107;102972;-74
2021/06/10 08:51:18;;;;;;;3.80;3.38;;;;;;;28.37;33.12;100139.19;260405;1107;102987;-75
2021/06/10 08:56:26;;;;;;;3.45;3.20;;;;;;;28.07;33.23;100142.13;260588;1107;103061;-74
2021/06/10 09:01:32;;;;;;;5.03;3.83;;;;;;;28.06;33.66;100143.27;260838;1107;103119;-74
2021/06/10 09:06:52;;;;;;;4.80;3.13;;;;;;;28.52;34.02;100140.41;260581;1107;102960;-73
2021/06/10 09:12:06;;;;;;;2.55;2.45;;;;;;;27.97;32.96;100134.35;260191;1107;103065;-74
2021/06/10 09:17:26;;;;;;;1.95;1.85;;;;;;;28.06;33.02;100131.51;260806;1107;104295;-75
2021/06/10 09:22:36;;;;;;;2.50;1.95;;;;;;;28.31;33.22;100135.88;260247;1107;103053;-75
2021/06/10 09:27:58;;;;;;;2.68;2.48;;;;;;;27.87;32.90;100140.27;260370;1107;102988;-73
2021/06/10 09:33:13;;;;;;;5.40;2.55;;;;;;;28.04;31.90;100128.31;260135;1102;103046;-74
2021/06/10 09:38:21;;;;;;;3.75;2.08;;;;;;;27.40;31.78;100128.84;260848;1103;103141;-72
2021/06/10 09:43:44;;;;;;;2.55;2.35;;;;;;;27.05;32.35;100125.63;260629;1107;103011;-74
2021/06/10 09:49:06;;;;;;;5.23;2.80;;;;;;;26.78;32.81;100122.28;260381;1107;102983;-74
2021/06/10 09:54:31;;;;;;;3.40;3.00;;;;;;;26.53;32.94;100119.73;260218;1107;103001;-73
2021/06/10 09:59:53;;;;;;;3.28;2.98;;;;;;;26.93;33.69;100112.65;260356;1107;103067;-75
2021/06/10 10:05:08;;;;;;;3.10;2.90;;;;;;;26.61;33.57;100119.65;261328;1107;103096;-73
2021/06/10 10:10:13;;;;;;;3.53;2.78;;;;;;;26.06;34.65;100117.05;262230;1107;102002;-74
2021/06/10 10:15:18;;;;;;;7.40;2.50;;;;;;;26.66;35.40;100113.19;261968;1107;102965;-72
2021/06/10 10:20:24;;;;;;;3.20;2.93;;;;;;;27.16;35.54;100111.20;262564;1107;101689;-72
2021/06/10 10:25:29;;;;;;;4.25;2.88;;;;;;;26.72;34.90;100107.20;262595;1107;103088;-72
2021/06/10 10:30:34;;;;;;;3.78;3.55;;;;;;;26.42;34.90;100108.38;262568;1107;102615;-72
2021/06/10 10:35:46;;;;;;;;;;;;;;;26.46;35.64;100103.84;260413;1107;102972;-72
2021/06/10 10:40:59;;;;;;;3.18;2.90;;;;;;;26.43;35.10;100091.64;261370;1107;102989;-74
2021/06/10 10:46:20;;;;;;;5.65;2.93;;;;;;;26.42;35.67;100097.44;259832;1107;103155;-74
2021/06/10 10:51:36;;;;;;;3.68;3.38;;;;;;;26.86;35.87;100093.27;261205;1107;103186;-72
2021/06/10 10:56:44;;;;;;;3.05;2.85;;;;;;;26.53;35.16;100093.19;260576;1107;103155;-73
2021/06/10 11:02:09;;;;;;;3.45;3.03;;;;;;;26.68;36.08;100081.64;260756;1107;103083;-72
2021/06/10 11:07:36;;;;;;;2.83;2.63;;;;;;;26.54;36.11;100091.26;260149;1107;103018;-74
2021/06/10 11:12:41;;;;;;;2.65;2.43;;;;;;;26.54;35.63;100083.86;260796;1107;102942;-73
2021/06/10 11:17:50;;;;;;;4.25;2.53;;;;;;;26.72;35.22;100081.78;260733;1107;102992;-73
2021/06/10 11:23:19;;;;;;;3.90;3.35;;;;;;;26.33;35.36;100075.62;260251;1107;103133;-73
2021/06/10 11:28:26;;;;;;;3.97;2.43;;;;;;;26.52;35.70;100074.39;259994;1107;103498;-73
2021/06/10 11:33:32;;;;;;;2.95;2.75;;;;;;;26.52;35.62;100064.25;260109;1107;103094;-73
2021/06/10 11:38:45;;;;;;;3.53;3.20;;;;;;;26.07;35.50;100069.48;260711;1103;103017;-74
2021/06/10 11:43:57;;;;;;;2.68;2.50;;;;;;;26.15;35.85;100066.71;261453;1107;103092;-73
2021/06/10 11:49:10;;;;;;;4.73;3.28;;;;;;;25.87;36.08;100056.58;261342;1107;103102;-74
2021/06/10 11:54:17;;;;;;;3.20;3.00;;;;;;;25.98;35.79;100052.36;260994;1101;103006;-73
2021/06/10 11:59:29;;;;;;;2.75;2.55;;;;;;;25.67;35.72;100052.66;259861;1102;102963;-73
2021/06/10 12:04:39;;;;;;;3.33;3.13;;;;;;;25.15;35.90;100037.20;261124;1107;102995;-74
2021/06/10 12:09:51;;;;;;;2.95;2.20;;;;;;;25.46;36.79;100022.50;260977;1107;103086;-74
2021/06/10 12:14:57;;;;;;;3.00;2.73;;;;;;;26.03;36.07;100027.56;261990;1107;103038;-74
2021/06/10 12:20:19;;;;;;;4.58;2.30;;;;;;;26.05;35.43;100028.03;261077;1107;103095;-73
2021/06/10 12:25:35;;;;;;;3.00;2.80;;;;;;;26.40;36.28;100012.23;262320;1102;102414;-74
2021/06/10 12:30:40;;;;;;;2.30;1.77;;;;;;;26.68;35.77;100005.08;261663;1107;102367;-74
2021/06/10 12:35:47;;;;;;;2.93;2.73;;;;;;;26.80;35.16;100005.14;261156;1102;103097;-73
2021/06/10 12:40:53;;;;;;;3.08;2.33;;;;;;;26.97;34.75;100001.45;259855;1107;103096;-74
2021/06/10 12:46:04;;;;;;;1.95;1.85;;;;;;;27.07;34.10;99989.28;259835;1107;103099;-73
2021/06/10 12:51:30;;;;;;;5.48;2.45;;;;;;;26.94;33.74;99993.08;261516;1107;102962;-74
2021/06/10 12:56:55;;;;;;;2.13;2.03;;;;;;;26.43;33.84;99986.97;260566;1107;103064;-74
2021/06/10 13:02:14;;;;;;;3.08;2.18;;;;;;;26.38;34.40;99985.23;261040;1107;103407;-74
2021/06/10 13:07:29;;;;;;;6.58;2.55;;;;;;;26.42;34.22;99969.77;261023;1107;103115;-73
2021/06/10 13:12:40;;;;;;;1.98;1.88;;;;;;;26.59;34.10;99968.03;260009;1102;102990;-73
2021/06/10 13:17:44;;;;;;;2.20;2.00;;;;;;;26.64;34.27;99970.53;260522;1107;103046;-72
2021/06/10 13:23:00;;;;;;;9.75;2.48;;;;;;;26.78;33.90;99962.84;260458;1107;102960;-72
2021/06/10 13:28:11;;;;;;;1.63;1.58;;;;;;;26.59;32.92;99957.89;261274;1107;102962;-72
2021/06/10 13:33:21;;;;;;;5.90;1.75;;;;;;;26.37;33.02;99959.03;260393;1107;102962;-72
2021/06/10 13:38:27;;;;;;;5.60;2.03;;;;;;;26.47;33.37;99949.63;260404;1107;103238;-73
2021/06/10 13:43:37;;;;;;;1.75;1.65;;;;;;;26.53;32.41;99948.30;260920;1107;103086;-72
2021/06/10 13:48:44;;;;;;;1.60;1.48;;;;;;;26.42;32.80;99944.36;259881;1107;103113;-72
2021/06/10 13:53:50;;;;;;;1.65;1.23;;;;;;;26.43;32.69;99940.50;260931;1107;103097;-72
2021/06/10 13:58:56;;;;;;;6.73;1.48;;;;;;;26.21;31.93;99938.89;261215;1107;102945;-73
2021/06/10 14:04:02;;;;;;;2.50;1.78;;;;;;;25.93;31.95;99926.91;261152;1107;103043;-72
2021/06/10 14:09:07;;;;;;;3.93;1.65;;;;;;;25.89;32.08;99925.96;260057;1107;103394;-72
2021/06/10 14:14:15;;;;;;;1.83;1.33;;;;;;;25.81;32.00;99922.95;262497;1107;102619;-73
2021/06/10 14:19:19;;;;;;;1.13;1.13;;;;;;;25.66;32.28;99926.27;262516;1107;102486;-73
2021/06/10 14:24:24;;;;;;;1.30;1.28;;;;;;;25.54;31.87;99915.22;262127;1101;103255;-70
2021/06/10 14:34:40;;;;;;;2.15;1.13;;;;;;;25.33;32.12;99915.19;262589;1107;101080;-73
2021/06/10 14:39:45;;;;;;;1.70;1.55;;;;;;;25.13;32.53;99924.88;262587;1107;101683;-71
2021/06/10 14:44:49;;;;;;;1.45;1.43;;;;;;;25.02;32.66;99918.20;261610;1102;102960;-73
2021/06/10 14:49:56;;;;;;;3.78;1.53;;;;;;;24.79;33.13;99914.84;261037;1107;103153;-73
2021/06/10 14:55:05;;;;;;;1.30;1.30;;;;;;;24.80;32.68;99900.09;260692;1107;103359;-73
2021/06/10 15:00:16;;;;;;;1.75;1.30;;;;;;;24.86;32.50;99908.91;261550;1107;102962;-73
2021/06/10 15:05:21;;;;;;;1.58;1.40;;;;;;;24.94;33.03;99904.55;260571;1107;103091;-73
2021/06/10 15:10:26;;;;;;;1.75;1.65;;;;;;;24.77;32.74;99905.39;261283;1107;102959;-73
2021/06/10 15:15:31;;;;;;;1.85;1.58;;;;;;;24.76;32.85;99903.82;260945;1107;103123;-73
2021/06/10 15:20:40;;;;;;;2.88;1.78;;;;;;;24.75;33.13;99897.56;261110;1107;102965;-72
2021/06/10 15:25:46;;;;;;;1.43;1.33;;;;;;;24.70;33.22;99907.84;260487;1107;103093;-73
2021/06/10 15:30:52;;;;;;;6.70;2.08;;;;;;;24.68;33.12;99894.53;260231;1103;102941;-72
2021/06/10 15:35:57;;;;;;;1.28;1.05;;;;;;;24.63;33.46;99891.17;260535;1107;103206;-73
2021/06/10 15:41:02;;;;;;;;;;;;;;;24.51;33.68;99897.27;261099;1107;103371;-73
2021/06/10 15:46:07;;;;;;;1.78;1.40;;;;;;;24.46;33.72;99889.27;260761;1103;104110;-72
2021/06/10 15:51:13;;;;;;;4.03;1.43;;;;;;;24.37;33.33;99885.77;261224;1107;102967;-73
2021/06/10 15:56:17;;;;;;;;;;;;;;;24.23;33.82;99890.55;260800;1107;103021;-73
2021/06/10 16:01:23;;;;;;;5.78;1.70;;;;;;;24.12;34.08;99881.92;261633;1107;102959;-73
2021/06/10 16:06:29;;;;;;;1.88;1.78;;;;;;;24.10;34.74;99881.44;262454;1107;102168;-73
2021/06/10 16:11:35;;;;;;;4.68;1.40;;;;;;;23.88;34.33;99882.38;261436;1107;103124;-73
2021/06/10 16:16:40;;;;;;;1.78;1.68;;;;;;;23.80;34.94;99875.83;261170;1107;102943;-72
2021/06/10 16:21:45;;;;;;;2.33;2.15;;;;;;;23.80;34.50;99880.47;259940;1107;103026;-73
2021/06/10 16:26:51;;;;;;;3.38;1.73;;;;;;;23.79;35.29;99867.98;261425;1107;102911;-73
2021/06/10 16:31:56;;;;;;;9.28;1.78;;;;;;;23.72;35.49;99867.65;262188;1107;101413;-73
2021/06/10 16:37:01;;;;;;;2.60;1.40;;;;;;;23.63;35.38;99870.34;262307;1107;101406;-73
2021/06/10 16:42:07;;;;;;;5.60;1.90;;;;;;;23.58;35.19;99869.70;261316;1107;103121;-73
2021/06/10 16:47:15;;;;;;;3.03;1.83;;;;;;;23.58;35.92;99873.22;260015;1107;103581;-74
2021/06/10 16:52:25;;;;;;;2.80;1.68;;;;;;;23.56;36.32;99869.20;260424;1107;103094;-73
2021/06/10 16:57:30;;;;;;;3.38;2.20;;;;;;;23.48;36.12;99874.31;260481;1107;103079;-73
2021/06/10 17:07:59;;;;;;;2.73;1.88;;;;;;;23.30;36.25;99888.96;260344;1107;102970;-71
2021/06/10 17:13:06;;;;;;;3.10;1.60;;;;;;;23.12;36.18;99877.23;261187;1107;103274;-71
2021/06/10 17:18:11;;;;;;;4.17;2.03;;;;;;;23.00;37.02;99887.89;260377;1103;102938;-72
2021/06/10 17:23:16;;;;;;;1.40;1.30;;;;;;;22.93;37.52;99890.25;260290;1106;102950;-72
2021/06/10 17:28:21;;;;;;;3.98;2.03;;;;;;;22.82;38.06;99883.50;260019;1107;103391;-73
2021/06/10 17:33:25;;;;;;;2.55;1.45;;;;;;;22.70;38.35;99892.19;260533;1107;102968;-72
2021/06/10 17:38:30;;;;;;;4.28;2.23;;;;;;;22.56;38.93;99896.92;259970;1107;103011;-72
2021/06/10 17:43:35;;;;;;;;;;;;;;;22.42;39.72;99890.73;260684;1107;103072;-72
2021/06/10 17:48:41;;;;;;;1.78;1.53;;;;;;;22.24;40.95;99892.54;260204;1107;103410;-73
2021/06/10 17:53:46;;;;;;;1.58;1.58;;;;;;;22.06;41.56;99888.88;261620;1107;101982;-72
2021/06/10 17:58:52;;;;;;;6.50;2.03;;;;;;;21.90;42.32;99895.73;261841;1107;101355;-72
2021/06/10 18:03:58;;;;;;;6.83;2.80;;;;;;;21.70;42.73;99888.05;260898;1107;102972;-72
2021/06/10 18:09:04;;;;;;;4.18;2.05;;;;;;;21.52;42.89;99895.20;261718;1107;103072;-73
2021/06/10 18:14:10;;;;;;;4.90;2.60;;;;;;;21.33;43.26;99886.39;260511;1107;103484;-73
2021/06/10 18:19:15;;;;;;;15.55;2.48;;;;;;;21.11;43.60;99898.69;260100;1107;102969;-73
2021/06/10 18:24:23;;;;;;;3.15;2.73;;;;;;;20.88;44.06;99888.83;261291;1107;102960;-72
2021/06/10 18:29:29;;;;;;;10.28;4.08;;;;;;;20.66;44.99;99894.92;260979;1107;102961;-73
2021/06/10 18:34:39;;;;;;;2.45;2.35;;;;;;;20.44;45.98;99903.69;262600;1107;102628;-72
2021/06/10 18:39:45;;;;;;;2.13;1.90;;;;;;;20.18;46.34;99899.72;261710;1107;102997;-72
2021/06/10 18:44:51;;;;;;;2.28;2.10;;;;;;;19.91;46.88;99905.00;261231;1107;102971;-73
2021/06/10 18:49:58;;;;;;;1.50;1.40;;;;;;;19.60;47.80;99905.41;260092;1107;103170;-73
2021/06/10 18:55:07;;;;;;;2.25;1.93;;;;;;;19.36;48.59;99908.11;261822;1107;103000;-74
2021/06/10 19:00:15;;;;;;;5.83;2.68;;;;;;;19.10;49.39;99910.30;260167;1107;103011;-72
2021/06/10 19:05:26;;;;;;;2.55;2.35;;;;;;;18.75;49.73;99921.45;261850;1107;102965;-73
2021/06/10 19:10:33;;;;;;;5.27;2.00;;;;;;;18.39;50.43;99923.59;260313;1101;103012;-82
2021/06/10 19:15:42;;;;;;;5.08;2.38;;;;;;;18.19;50.98;99921.86;259836;1103;103744;-72
2021/06/10 19:20:49;;;;;;;11.50;4.25;;;;;;;17.95;51.87;99924.45;260799;1107;103040;-73
2021/06/10 19:25:58;;;;;;;8.85;3.53;;;;;;;17.76;52.34;99934.23;260213;1107;103056;-76
2021/06/10 19:31:10;;;;;;;13.10;4.10;;;;;;;17.47;52.49;99939.45;260341;1107;103088;-71
2021/06/10 19:36:15;;;;;;;;;;;;;;;17.04;53.41;99936.34;260311;1107;103090;-71
2021/06/10 19:41:19;;;;;;;19.55;5.00;;;;;;;16.64;54.05;99931.00;260716;1107;103065;-74
2021/06/10 19:46:26;;;;;;;16.88;3.13;;;;;;;16.35;55.18;99939.56;261169;1107;102990;-71
2021/06/10 19:51:30;;;;;;;8.63;4.03;;;;;;;16.14;55.70;99943.31;260098;1101;103067;-72
2021/06/10 19:56:34;;;;;;;15.80;4.33;;;;;;;16.08;55.91;99938.98;261339;1106;103137;-73
2021/06/10 20:01:39;;;;;;;9.73;4.07;;;;;;;15.99;56.43;99935.19;260313;1107;103035;-73
2021/06/10 20:06:44;;;;;;;11.43;4.38;;;;;;;15.79;56.92;99934.08;261305;1107;103335;-70
2021/06/10 20:11:48;;;;;;;11.48;3.48;;;;;;;15.54;57.09;99933.95;260256;1107;103062;-72
2021/06/10 20:16:53;;;;;;;5.53;3.55;;;;;;;15.30;57.63;99932.74;260514;1107;103016;-71
2021/06/10 20:21:58;;;;;;;18.10;4.48;;;;;;;15.06;57.96;99930.47;262086;1107;102956;-70
2021/06/10 20:32:14;;;;;;;4.45;3.33;;;;;;;14.86;58.28;99927.66;262496;1107;102859;-72
2021/06/10 20:37:22;;;;;;;6.20;3.70;;;;;;;14.72;59.25;99921.10;262302;1107;101572;-71
2021/06/10 20:42:27;;;;;;;3.30;3.00;;;;;;;14.61;59.14;99927.48;261025;1107;103015;-71
2021/06/10 20:47:32;;;;;;;7.23;2.90;;;;;;;14.48;59.39;99921.47;262501;1107;101542;-71
2021/06/10 20:52:38;;;;;;;4.78;2.95;;;;;;;14.45;60.36;99921.97;260596;1107;103511;-70
2021/06/10 20:57:42;;;;;;;6.28;3.30;;;;;;;14.32;60.76;99922.38;261717;1107;102125;-71
2021/06/10 21:02:48;;;;;;;4.87;3.13;;;;;;;14.10;60.22;99919.73;261301;1102;103094;-68
2021/06/10 21:07:53;;;;;;;13.98;5.05;;;;;;;13.98;60.69;99915.61;260696;1107;102997;-71
2021/06/10 21:13:00;;;;;;;4.63;3.77;;;;;;;13.92;61.30;99914.73;259839;1107;103034;-70
2021/06/10 21:18:05;;;;;;;4.43;4.08;;;;;;;13.91;61.19;99915.80;260085;1107;103040;-70
2021/06/10 21:23:10;;;;;;;7.97;3.83;;;;;;;13.72;61.67;99920.70;260295;1107;104292;-70
2021/06/10 21:28:16;;;;;;;11.53;3.95;;;;;;;13.53;62.03;99914.02;259983;1107;103033;-70
2021/06/10 21:33:22;;;;;;;3.98;3.60;;;;;;;13.32;62.69;99917.52;260259;1107;103371;-69
2021/06/10 21:38:27;;;;;;;4.85;4.15;;;;;;;13.15;63.18;99913.00;260101;1107;103133;-69
2021/06/10 21:43:33;;;;;;;7.60;4.55;;;;;;;13.06;63.25;99924.36;260014;1101;103094;-70
2021/06/10 21:48:38;;;;;;;5.38;4.55;;;;;;;13.12;63.67;99932.23;260587;1107;102969;-68
2021/06/10 21:53:44;;;;;;;10.83;5.43;;;;;;;13.10;63.54;99931.66;260141;1107;103062;-69
2021/06/10 21:58:49;;;;;;;5.75;2.98;;;;;;;13.02;63.83;99926.72;259989;1107;103042;-68
2021/06/10 22:03:54;;;;;;;5.20;4.80;;;;;;;12.85;63.82;99927.77;260921;1107;102968;-68
2021/06/10 22:09:00;;;;;;;15.68;4.88;;;;;;;12.70;64.16;99931.86;261090;1107;102996;-71
2021/06/10 22:14:04;;;;;;;7.03;5.05;;;;;;;12.60;64.39;99923.66;260507;1107;102991;-70
2021/06/10 22:19:09;;;;;;;12.08;4.68;;;;;;;12.54;64.62;99931.83;259982;1107;103033;-70
2021/06/10 22:24:15;;;;;;;14.20;5.43;;;;;;;12.53;65.17;99935.59;260523;1107;103123;-69
2021/06/10 22:29:22;;;;;;;4.83;4.40;;;;;;;12.48;65.20;99931.78;262590;1107;101447;-70
2021/06/10 22:34:27;;;;;;;7.15;4.25;;;;;;;12.37;65.46;99923.81;262614;1107;101210;-71
2021/06/10 22:39:32;;;;;;;9.73;5.53;;;;;;;12.24;65.68;99927.59;262429;1106;102384;-71
2021/06/10 22:44:39;;;;;;;15.88;6.60;;;;;;;12.20;65.81;99931.83;262619;1107;102718;-71
2021/06/10 22:49:44;;;;;;;7.20;6.50;;;;;;;12.16;65.89;99924.52;261378;1107;103754;-69
2021/06/10 22:54:49;;;;;;;11.55;6.78;;;;;;;12.20;66.22;99923.81;261403;1107;102946;-72
2021/06/10 22:59:53;;;;;;;8.20;4.80;;;;;;;12.15;66.58;99921.05;260976;1107;103021;-71
2021/06/10 23:04:58;;;;;;;14.08;5.73;;;;;;;12.05;66.39;99929.67;261146;1107;102966;-70
2021/06/10 23:10:07;;;;;;;17.33;5.60;;;;;;;11.90;66.80;99923.25;260839;1102;103081;-72
2021/06/10 23:15:14;;;;;;;14.95;8.20;;;;;;;11.86;67.28;99924.78;260599;1101;103168;-68
2021/06/10 23:20:20;;;;;;;9.95;6.55;;;;;;;11.92;67.59;99923.83;260084;1107;103174;-70
2021/06/10 23:25:24;;;;;;;15.30;5.87;;;;;;;11.94;67.69;99925.19;260706;1107;103088;-69
2021/06/10 23:30:30;;;;;;;8.88;5.28;;;;;;;11.89;67.94;99921.63;260751;1103;103404;-69
2021/06/10 23:35:36;;;;;;;7.05;5.28;;;;;;;11.82;68.37;99927.11;260540;1107;103038;-70
2021/06/10 23:40:41;;;;;;;12.28;6.60;;;;;;;11.84;68.44;99921.53;260899;1103;103066;-69
2021/06/10 23:45:46;;;;;;;14.60;7.05;;;;;;;11.91;68.80;99917.67;260186;1107;103087;-69